sensor_id;sensor_type;location;lat;lon;timestamp;pressure;altitude;pressure_sealevel;temperature;humidity
74675;BME280;63200;48.810;12.352;2023-06-22T00:02:13;97700.19;;;16.51;82.01
74675;BME280;63200;48.810;12.352;2023-06-22T00:04:38;97698.09;;;16.47;81.84
74675;BME280;63200;48.810;12.352;2023-06-22T00:07:03;97689.66;;;16.35;81.91
74675;BME280;63200;48.810;12.352;2023-06-22T00:09:30;97671.13;;;16.23;82.13
74675;BME280;63200;48.810;12.352;2023-06-22T00:11:56;97681.59;;;16.30;82.26
74675;BME280;63200;48.810;12.352;2023-06-22T00:14:21;97681.75;;;16.33;82.32
74675;BME280;63200;48.810;12.352;2023-06-22T00:16:46;97687.59;;;16.41;82.05
74675;BME280;63200;48.810;12.352;2023-06-22T00:19:14;97676.78;;;16.36;82.11
74675;BME280;63200;48.810;12.352;2023-06-22T00:21:40;97683.09;;;16.54;82.08
74675;BME280;63200;48.810;12.352;2023-06-22T00:24:05;97673.44;;;16.56;82.28
74675;BME280;63200;48.810;12.352;2023-06-22T00:26:31;97662.47;;;16.56;82.23
74675;BME280;63200;48.810;12.352;2023-06-22T00:28:56;97646.03;;;16.56;82.23
74675;BME280;63200;48.810;12.352;2023-06-22T00:31:22;97643.47;;;16.60;82.49
74675;BME280;63200;48.810;12.352;2023-06-22T00:33:47;97642.34;;;16.61;82.49
74675;BME280;63200;48.810;12.352;2023-06-22T00:36:12;97643.13;;;16.61;82.54
74675;BME280;63200;48.810;12.352;2023-06-22T00:38:41;97638.16;;;16.63;82.43
74675;BME280;63200;48.810;12.352;2023-06-22T00:41:07;97628.78;;;16.56;82.36
74675;BME280;63200;48.810;12.352;2023-06-22T00:43:32;97618.94;;;16.46;82.12
74675;BME280;63200;48.810;12.352;2023-06-22T00:45:58;97619.72;;;16.38;81.94
74675;BME280;63200;48.810;12.352;2023-06-22T00:48:23;97594.53;;;16.09;82.07
74675;BME280;63200;48.810;12.352;2023-06-22T00:50:49;97630.84;;;16.32;82.37
74675;BME280;63200;48.810;12.352;2023-06-22T00:53:16;97569.69;;;15.97;82.40
74675;BME280;63200;48.810;12.352;2023-06-22T00:55:44;97617.91;;;16.24;82.23
74675;BME280;63200;48.810;12.352;2023-06-22T00:58:11;97605.19;;;16.20;82.52
74675;BME280;63200;48.810;12.352;2023-06-22T01:00:37;97600.22;;;16.30;82.81
74675;BME280;63200;48.810;12.352;2023-06-22T01:03:03;97618.91;;;16.37;82.67
74675;BME280;63200;48.810;12.352;2023-06-22T01:05:29;97620.53;;;16.38;82.73
74675;BME280;63200;48.810;12.352;2023-06-22T01:10:44;97614.25;;;16.46;82.80
74675;BME280;63200;48.810;12.352;2023-06-22T01:13:37;97608.78;;;16.46;82.71
74675;BME280;63200;48.810;12.352;2023-06-22T01:16:19;97612.03;;;16.48;82.53
74675;BME280;63200;48.810;12.352;2023-06-22T01:18:47;97607.34;;;16.49;82.78
74675;BME280;63200;48.810;12.352;2023-06-22T01:21:16;97601.06;;;16.48;82.91
74675;BME280;63200;48.810;12.352;2023-06-22T01:24:14;97593.13;;;16.47;82.87
74675;BME280;63200;48.810;12.352;2023-06-22T01:29:16;97597.16;;;16.32;82.03
74675;BME280;63200;48.810;12.352;2023-06-22T01:31:43;97575.22;;;16.14;82.14
74675;BME280;63200;48.810;12.352;2023-06-22T01:34:10;97580.69;;;16.14;82.52
74675;BME280;63200;48.810;12.352;2023-06-22T01:36:37;97578.09;;;16.09;82.73
74675;BME280;63200;48.810;12.352;2023-06-22T01:39:05;97583.56;;;16.09;82.91
74675;BME280;63200;48.810;12.352;2023-06-22T01:41:37;97581.47;;;16.06;82.62
74675;BME280;63200;48.810;12.352;2023-06-22T01:44:05;97574.53;;;16.00;82.69
74675;BME280;63200;48.810;12.352;2023-06-22T01:46:32;97559.03;;;15.95;83.11
74675;BME280;63200;48.810;12.352;2023-06-22T01:48:57;97565.84;;;16.07;83.88
74675;BME280;63200;48.810;12.352;2023-06-22T01:51:23;97571.00;;;16.08;83.89
74675;BME280;63200;48.810;12.352;2023-06-22T01:53:49;97573.25;;;16.06;83.84
74675;BME280;63200;48.810;12.352;2023-06-22T01:56:16;97578.69;;;15.97;83.05
74675;BME280;63200;48.810;12.352;2023-06-22T01:58:50;97580.47;;;15.93;83.10
74675;BME280;63200;48.810;12.352;2023-06-22T02:01:20;97592.53;;;15.92;83.07
74675;BME280;63200;48.810;12.352;2023-06-22T02:04:12;97597.81;;;15.89;82.97
74675;BME280;63200;48.810;12.352;2023-06-22T02:06:42;97601.25;;;15.94;83.10
74675;BME280;63200;48.810;12.352;2023-06-22T02:09:17;97595.47;;;15.96;83.04
74675;BME280;63200;48.810;12.352;2023-06-22T02:11:44;97559.41;;;15.62;83.27
74675;BME280;63200;48.810;12.352;2023-06-22T02:14:11;97568.22;;;15.59;83.07
74675;BME280;63200;48.810;12.352;2023-06-22T02:16:38;97616.50;;;15.87;83.38
74675;BME280;63200;48.810;12.352;2023-06-22T02:19:04;97611.84;;;15.87;83.51
74675;BME280;63200;48.810;12.352;2023-06-22T02:21:31;97618.13;;;15.88;83.48
74675;BME280;63200;48.810;12.352;2023-06-22T02:23:57;97626.50;;;15.82;83.28
74675;BME280;63200;48.810;12.352;2023-06-22T02:26:23;97579.16;;;15.51;82.92
74675;BME280;63200;48.810;12.352;2023-06-22T02:28:49;97626.81;;;15.81;83.08
74675;BME280;63200;48.810;12.352;2023-06-22T02:31:14;97627.38;;;15.69;82.61
74675;BME280;63200;48.810;12.352;2023-06-22T02:33:39;97627.88;;;15.48;82.39
74675;BME280;63200;48.810;12.352;2023-06-22T02:36:05;97614.28;;;15.35;82.56
74675;BME280;63200;48.810;12.352;2023-06-22T02:38:34;97584.22;;;15.12;82.54
74675;BME280;63200;48.810;12.352;2023-06-22T02:41:02;97604.34;;;15.39;83.10
74675;BME280;63200;48.810;12.352;2023-06-22T02:43:27;97569.25;;;15.41;84.10
74675;BME280;63200;48.810;12.352;2023-06-22T02:45:53;97578.63;;;15.80;85.04
74675;BME280;63200;48.810;12.352;2023-06-22T02:48:18;97602.97;;;16.30;86.66
74675;BME280;63200;48.810;12.352;2023-06-22T02:50:44;97607.53;;;16.53;87.17
74675;BME280;63200;48.810;12.352;2023-06-22T02:53:09;97610.59;;;16.69;87.31
74675;BME280;63200;48.810;12.352;2023-06-22T02:55:34;97611.72;;;16.76;87.02
74675;BME280;63200;48.810;12.352;2023-06-22T02:58:00;97601.88;;;16.84;86.72
74675;BME280;63200;48.810;12.352;2023-06-22T03:00:30;97594.13;;;16.86;86.70
74675;BME280;63200;48.810;12.352;2023-06-22T03:02:56;97594.34;;;16.90;86.85
74675;BME280;63200;48.810;12.352;2023-06-22T03:05:22;97595.44;;;16.89;86.74
74675;BME280;63200;48.810;12.352;2023-06-22T03:07:48;97586.91;;;16.90;86.65
74675;BME280;63200;48.810;12.352;2023-06-22T03:10:14;97586.59;;;16.92;86.65
74675;BME280;63200;48.810;12.352;2023-06-22T03:12:41;97584.16;;;16.90;86.49
74675;BME280;63200;48.810;12.352;2023-06-22T03:15:08;97579.63;;;16.86;86.52
74675;BME280;63200;48.810;12.352;2023-06-22T03:17:35;97567.03;;;16.76;86.51
74675;BME280;63200;48.810;12.352;2023-06-22T03:20:01;97590.75;;;16.80;86.65
74675;BME280;63200;48.810;12.352;2023-06-22T03:22:34;97560.94;;;16.70;86.47
74675;BME280;63200;48.810;12.352;2023-06-22T03:24:59;97589.78;;;16.85;86.68
74675;BME280;63200;48.810;12.352;2023-06-22T03:27:24;97591.59;;;16.90;86.70
74675;BME280;63200;48.810;12.352;2023-06-22T03:29:50;97589.81;;;16.94;86.99
74675;BME280;63200;48.810;12.352;2023-06-22T03:32:15;97596.25;;;16.98;86.99
74675;BME280;63200;48.810;12.352;2023-06-22T03:34:40;97580.78;;;17.02;86.92
74675;BME280;63200;48.810;12.352;2023-06-22T03:37:05;97583.19;;;17.04;87.00
74675;BME280;63200;48.810;12.352;2023-06-22T03:39:31;97592.06;;;17.09;87.09
74675;BME280;63200;48.810;12.352;2023-06-22T03:41:56;97589.34;;;17.09;86.79
74675;BME280;63200;48.810;12.352;2023-06-22T03:44:22;97590.78;;;17.07;86.84
74675;BME280;63200;48.810;12.352;2023-06-22T03:46:47;97572.22;;;17.04;86.85
74675;BME280;63200;48.810;12.352;2023-06-22T03:49:12;97569.63;;;16.98;86.72
74675;BME280;63200;48.810;12.352;2023-06-22T03:51:38;97571.91;;;16.96;86.80
74675;BME280;63200;48.810;12.352;2023-06-22T03:54:03;97565.59;;;16.96;86.95
74675;BME280;63200;48.810;12.352;2023-06-22T03:56:29;97575.63;;;17.01;86.96
74675;BME280;63200;48.810;12.352;2023-06-22T03:58:54;97574.97;;;17.04;87.18
74675;BME280;63200;48.810;12.352;2023-06-22T04:01:19;97583.34;;;17.07;87.15
74675;BME280;63200;48.810;12.352;2023-06-22T04:03:45;97586.59;;;17.09;87.12
74675;BME280;63200;48.810;12.352;2023-06-22T04:06:13;97589.97;;;17.15;86.99
74675;BME280;63200;48.810;12.352;2023-06-22T04:08:38;97589.31;;;17.18;86.89
74675;BME280;63200;48.810;12.352;2023-06-22T04:11:03;97593.34;;;17.21;86.90
74675;BME280;63200;48.810;12.352;2023-06-22T04:13:30;97592.84;;;17.27;86.68
74675;BME280;63200;48.810;12.352;2023-06-22T04:15:55;97589.91;;;17.32;86.65
74675;BME280;63200;48.810;12.352;2023-06-22T04:18:20;97594.56;;;17.41;86.36
74675;BME280;63200;48.810;12.352;2023-06-22T04:20:45;97585.38;;;17.45;86.07
74675;BME280;63200;48.810;12.352;2023-06-22T04:23:12;97589.06;;;17.49;85.81
74675;BME280;63200;48.810;12.352;2023-06-22T04:25:37;97588.41;;;17.53;85.53
74675;BME280;63200;48.810;12.352;2023-06-22T04:28:03;97589.38;;;17.57;85.26
74675;BME280;63200;48.810;12.352;2023-06-22T04:30:29;97545.22;;;17.32;84.91
74675;BME280;63200;48.810;12.352;2023-06-22T04:32:56;97598.38;;;17.66;84.71
74675;BME280;63200;48.810;12.352;2023-06-22T04:35:26;97604.97;;;17.74;84.57
74675;BME280;63200;48.810;12.352;2023-06-22T04:37:53;97552.44;;;17.45;84.33
74675;BME280;63200;48.810;12.352;2023-06-22T04:40:23;97585.44;;;17.75;84.28
74675;BME280;63200;48.810;12.352;2023-06-22T04:42:48;97599.13;;;17.93;84.23
74675;BME280;63200;48.810;12.352;2023-06-22T04:45:18;97589.88;;;17.97;84.09
74675;BME280;63200;48.810;12.352;2023-06-22T04:47:43;97589.19;;;18.09;83.97
74675;BME280;63200;48.810;12.352;2023-06-22T04:50:11;97588.66;;;18.16;83.85
74675;BME280;63200;48.810;12.352;2023-06-22T04:52:37;97573.94;;;18.21;83.54
74675;BME280;63200;48.810;12.352;2023-06-22T04:55:02;97582.94;;;18.30;83.33
74675;BME280;63200;48.810;12.352;2023-06-22T04:57:28;97586.44;;;18.39;83.11
74675;BME280;63200;48.810;12.352;2023-06-22T04:59:58;97585.09;;;18.45;82.76
74675;BME280;63200;48.810;12.352;2023-06-22T05:02:36;97581.50;;;18.54;82.70
74675;BME280;63200;48.810;12.352;2023-06-22T05:05:01;97582.44;;;18.58;82.51
74675;BME280;63200;48.810;12.352;2023-06-22T05:07:35;97576.53;;;18.68;82.39
74675;BME280;63200;48.810;12.352;2023-06-22T05:10:01;97586.81;;;18.80;82.02
74675;BME280;63200;48.810;12.352;2023-06-22T05:12:27;97585.25;;;18.91;81.63
74675;BME280;63200;48.810;12.352;2023-06-22T05:14:53;97585.19;;;19.00;81.30
74675;BME280;63200;48.810;12.352;2023-06-22T05:17:19;97585.09;;;19.09;80.70
74675;BME280;63200;48.810;12.352;2023-06-22T05:19:44;97582.63;;;19.16;80.11
74675;BME280;63200;48.810;12.352;2023-06-22T05:22:14;97577.50;;;19.27;80.16
74675;BME280;63200;48.810;12.352;2023-06-22T05:24:40;97588.53;;;19.39;79.76
74675;BME280;63200;48.810;12.352;2023-06-22T05:27:05;97584.06;;;19.47;79.25
74675;BME280;63200;48.810;12.352;2023-06-22T05:29:31;97593.53;;;19.58;78.97
74675;BME280;63200;48.810;12.352;2023-06-22T05:31:56;97587.56;;;19.69;78.28
74675;BME280;63200;48.810;12.352;2023-06-22T05:34:21;97591.97;;;19.82;78.23
74675;BME280;63200;48.810;12.352;2023-06-22T05:36:46;97588.75;;;19.92;77.86
74675;BME280;63200;48.810;12.352;2023-06-22T05:39:13;97586.13;;;19.84;77.72
74675;BME280;63200;48.810;12.352;2023-06-22T05:41:39;97594.63;;;19.91;77.59
74675;BME280;63200;48.810;12.352;2023-06-22T05:44:04;97586.25;;;20.00;77.21
74675;BME280;63200;48.810;12.352;2023-06-22T05:46:29;97590.97;;;19.99;76.95
74675;BME280;63200;48.810;12.352;2023-06-22T05:48:55;97590.72;;;20.04;76.92
74675;BME280;63200;48.810;12.352;2023-06-22T05:51:20;97582.59;;;20.20;75.95
74675;BME280;63200;48.810;12.352;2023-06-22T05:53:45;97580.81;;;20.28;75.76
74675;BME280;63200;48.810;12.352;2023-06-22T05:56:15;97582.09;;;20.43;75.45
74675;BME280;63200;48.810;12.352;2023-06-22T05:58:40;97577.13;;;20.48;74.73
74675;BME280;63200;48.810;12.352;2023-06-22T06:01:05;97541.66;;;20.35;74.71
74675;BME280;63200;48.810;12.352;2023-06-22T06:03:30;97567.25;;;20.60;74.77
74675;BME280;63200;48.810;12.352;2023-06-22T06:05:56;97581.59;;;20.66;74.86
74675;BME280;63200;48.810;12.352;2023-06-22T06:08:21;97571.13;;;20.71;74.56
74675;BME280;63200;48.810;12.352;2023-06-22T06:10:47;97567.75;;;20.90;74.43
74675;BME280;63200;48.810;12.352;2023-06-22T06:13:12;97572.06;;;21.04;74.23
74675;BME280;63200;48.810;12.352;2023-06-22T06:15:37;97569.38;;;21.07;73.63
74675;BME280;63200;48.810;12.352;2023-06-22T06:18:03;97576.88;;;21.07;73.49
74675;BME280;63200;48.810;12.352;2023-06-22T06:20:30;97545.50;;;20.99;73.79
74675;BME280;63200;48.810;12.352;2023-06-22T06:22:56;97571.03;;;21.24;72.90
74675;BME280;63200;48.810;12.352;2023-06-22T06:25:22;97570.41;;;21.31;72.03
74675;BME280;63200;48.810;12.352;2023-06-22T06:27:49;97568.31;;;21.40;71.53
74675;BME280;63200;48.810;12.352;2023-06-22T06:30:16;97567.31;;;21.61;71.54
74675;BME280;63200;48.810;12.352;2023-06-22T06:32:42;97564.28;;;21.82;71.36
74675;BME280;63200;48.810;12.352;2023-06-22T06:35:09;97556.34;;;21.96;70.96
74675;BME280;63200;48.810;12.352;2023-06-22T06:37:39;97552.31;;;22.10;70.95
74675;BME280;63200;48.810;12.352;2023-06-22T06:40:08;97559.81;;;22.09;70.58
74675;BME280;63200;48.810;12.352;2023-06-22T06:42:39;97565.13;;;22.18;69.99
74675;BME280;63200;48.810;12.352;2023-06-22T06:45:07;97551.91;;;22.27;68.92
74675;BME280;63200;48.810;12.352;2023-06-22T06:47:33;97558.25;;;22.44;68.90
74675;BME280;63200;48.810;12.352;2023-06-22T06:49:58;97540.72;;;22.56;69.01
74675;BME280;63200;48.810;12.352;2023-06-22T06:52:24;97534.59;;;22.66;68.40
74675;BME280;63200;48.810;12.352;2023-06-22T06:54:50;97538.03;;;22.79;68.21
74675;BME280;63200;48.810;12.352;2023-06-22T06:57:17;97526.88;;;22.95;67.40
74675;BME280;63200;48.810;12.352;2023-06-22T06:59:42;97512.56;;;23.12;67.53
74675;BME280;63200;48.810;12.352;2023-06-22T07:02:08;97537.31;;;23.44;65.85
74675;BME280;63200;48.810;12.352;2023-06-22T07:04:33;97534.84;;;23.62;65.44
74675;BME280;63200;48.810;12.352;2023-06-22T07:07:01;97528.06;;;23.83;64.46
74675;BME280;63200;48.810;12.352;2023-06-22T07:09:27;97533.56;;;24.03;63.84
74675;BME280;63200;48.810;12.352;2023-06-22T07:11:52;97535.75;;;24.17;63.01
74675;BME280;63200;48.810;12.352;2023-06-22T07:14:17;97523.63;;;24.28;64.32
74675;BME280;63200;48.810;12.352;2023-06-22T07:16:42;97534.09;;;24.39;63.11
74675;BME280;63200;48.810;12.352;2023-06-22T07:19:08;97534.44;;;24.64;62.29
74675;BME280;63200;48.810;12.352;2023-06-22T07:21:33;97533.41;;;24.76;61.83
74675;BME280;63200;48.810;12.352;2023-06-22T07:23:58;97537.69;;;25.04;61.34
74675;BME280;63200;48.810;12.352;2023-06-22T07:26:24;97532.69;;;25.17;60.24
74675;BME280;63200;48.810;12.352;2023-06-22T07:28:49;97536.03;;;25.33;59.78
74675;BME280;63200;48.810;12.352;2023-06-22T07:31:15;97523.13;;;25.52;60.24
74675;BME280;63200;48.810;12.352;2023-06-22T07:33:41;97515.00;;;25.73;59.43
74675;BME280;63200;48.810;12.352;2023-06-22T07:36:06;97507.56;;;25.88;56.90
74675;BME280;63200;48.810;12.352;2023-06-22T07:38:33;97486.03;;;25.78;55.34
74675;BME280;63200;48.810;12.352;2023-06-22T07:41:00;97490.91;;;25.92;55.03
74675;BME280;63200;48.810;12.352;2023-06-22T07:43:25;97491.41;;;26.05;55.26
74675;BME280;63200;48.810;12.352;2023-06-22T07:45:51;97493.56;;;26.33;55.04
74675;BME280;63200;48.810;12.352;2023-06-22T07:48:21;97495.28;;;26.59;54.46
74675;BME280;63200;48.810;12.352;2023-06-22T07:50:46;97498.97;;;26.82;53.58
74675;BME280;63200;48.810;12.352;2023-06-22T07:53:12;97496.69;;;27.13;52.35
74675;BME280;63200;48.810;12.352;2023-06-22T07:55:37;97497.13;;;27.40;52.15
74675;BME280;63200;48.810;12.352;2023-06-22T07:58:02;97492.38;;;27.51;51.40
74675;BME280;63200;48.810;12.352;2023-06-22T08:00:28;97486.41;;;27.53;51.05
74675;BME280;63200;48.810;12.352;2023-06-22T08:02:53;97487.19;;;27.86;51.53
74675;BME280;63200;48.810;12.352;2023-06-22T08:05:19;97491.19;;;28.17;50.32
74675;BME280;63200;48.810;12.352;2023-06-22T08:07:44;97492.75;;;28.29;50.00
74675;BME280;63200;48.810;12.352;2023-06-22T08:10:11;97491.47;;;28.48;48.11
74675;BME280;63200;48.810;12.352;2023-06-22T08:12:37;97480.34;;;28.45;47.35
74675;BME280;63200;48.810;12.352;2023-06-22T08:15:03;97485.44;;;28.71;48.99
74675;BME280;63200;48.810;12.352;2023-06-22T08:17:28;97494.53;;;28.90;47.27
74675;BME280;63200;48.810;12.352;2023-06-22T08:19:53;97491.69;;;29.01;45.30
74675;BME280;63200;48.810;12.352;2023-06-22T08:22:19;97486.50;;;28.99;46.02
74675;BME280;63200;48.810;12.352;2023-06-22T08:24:44;97480.09;;;28.99;45.69
74675;BME280;63200;48.810;12.352;2023-06-22T08:27:10;97434.72;;;28.80;45.41
74675;BME280;63200;48.810;12.352;2023-06-22T08:29:40;97481.97;;;29.20;45.02
74675;BME280;63200;48.810;12.352;2023-06-22T08:32:08;97480.00;;;29.20;43.59
74675;BME280;63200;48.810;12.352;2023-06-22T08:34:35;97478.00;;;29.28;45.53
74675;BME280;63200;48.810;12.352;2023-06-22T08:37:00;97478.97;;;29.56;42.83
74675;BME280;63200;48.810;12.352;2023-06-22T08:39:26;97489.25;;;29.70;43.79
74675;BME280;63200;48.810;12.352;2023-06-22T08:41:51;97481.94;;;29.87;42.75
74675;BME280;63200;48.810;12.352;2023-06-22T08:44:18;97480.81;;;29.73;43.13
74675;BME280;63200;48.810;12.352;2023-06-22T08:46:43;97490.75;;;29.78;42.02
74675;BME280;63200;48.810;12.352;2023-06-22T08:49:08;97485.13;;;29.89;42.22
74675;BME280;63200;48.810;12.352;2023-06-22T08:51:35;97483.69;;;30.15;43.18
74675;BME280;63200;48.810;12.352;2023-06-22T08:54:00;97483.75;;;30.46;42.94
74675;BME280;63200;48.810;12.352;2023-06-22T08:56:25;97474.00;;;30.58;41.93
74675;BME280;63200;48.810;12.352;2023-06-22T08:58:51;97468.72;;;30.64;43.34
74675;BME280;63200;48.810;12.352;2023-06-22T09:01:16;97461.63;;;30.86;43.54
74675;BME280;63200;48.810;12.352;2023-06-22T09:03:42;97442.56;;;30.78;41.05
74675;BME280;63200;48.810;12.352;2023-06-22T09:06:07;97469.38;;;31.10;41.33
74675;BME280;63200;48.810;12.352;2023-06-22T09:08:35;97468.50;;;31.40;41.43
74675;BME280;63200;48.810;12.352;2023-06-22T09:11:00;97472.06;;;31.44;40.41
74675;BME280;63200;48.810;12.352;2023-06-22T09:13:26;97471.00;;;31.62;39.95
74675;BME280;63200;48.810;12.352;2023-06-22T09:15:51;97460.75;;;31.75;40.18
74675;BME280;63200;48.810;12.352;2023-06-22T09:18:17;97432.97;;;31.57;39.26
74675;BME280;63200;48.810;12.352;2023-06-22T09:20:43;97463.06;;;31.80;40.00
74675;BME280;63200;48.810;12.352;2023-06-22T09:23:08;97470.06;;;32.16;39.80
74675;BME280;63200;48.810;12.352;2023-06-22T09:25:33;97461.69;;;32.56;40.27
74675;BME280;63200;48.810;12.352;2023-06-22T09:27:58;97460.94;;;32.92;37.81
74675;BME280;63200;48.810;12.352;2023-06-22T09:30:24;97451.94;;;32.81;38.74
74675;BME280;63200;48.810;12.352;2023-06-22T09:32:49;97448.84;;;32.75;38.71
74675;BME280;63200;48.810;12.352;2023-06-22T09:35:14;97450.78;;;33.15;36.66
74675;BME280;63200;48.810;12.352;2023-06-22T09:37:40;97458.53;;;33.11;36.76
74675;BME280;63200;48.810;12.352;2023-06-22T09:40:06;97422.91;;;33.04;37.86
74675;BME280;63200;48.810;12.352;2023-06-22T09:42:36;97412.63;;;32.97;36.60
74675;BME280;63200;48.810;12.352;2023-06-22T09:45:02;97433.94;;;33.31;37.19
74675;BME280;63200;48.810;12.352;2023-06-22T09:47:29;97440.75;;;33.50;37.33
74675;BME280;63200;48.810;12.352;2023-06-22T09:49:54;97435.72;;;33.58;37.62
74675;BME280;63200;48.810;12.352;2023-06-22T09:52:21;97431.59;;;33.79;37.30
74675;BME280;63200;48.810;12.352;2023-06-22T09:54:46;97435.88;;;33.84;36.19
74675;BME280;63200;48.810;12.352;2023-06-22T09:57:11;97427.16;;;33.78;35.58
74675;BME280;63200;48.810;12.352;2023-06-22T09:59:37;97428.41;;;33.94;37.43
74675;BME280;63200;48.810;12.352;2023-06-22T10:02:03;97423.72;;;33.87;34.70
74675;BME280;63200;48.810;12.352;2023-06-22T10:04:28;97392.41;;;33.68;34.35
74675;BME280;63200;48.810;12.352;2023-06-22T10:06:53;97422.78;;;33.44;34.95
74675;BME280;63200;48.810;12.352;2023-06-22T10:09:19;97431.41;;;33.37;36.16
74675;BME280;63200;48.810;12.352;2023-06-22T10:11:44;97427.97;;;33.29;35.38
74675;BME280;63200;48.810;12.352;2023-06-22T10:14:09;97425.53;;;33.48;35.31
74675;BME280;63200;48.810;12.352;2023-06-22T10:16:36;97432.69;;;33.98;34.58
74675;BME280;63200;48.810;12.352;2023-06-22T10:19:01;97428.00;;;34.08;35.25
74675;BME280;63200;48.810;12.352;2023-06-22T10:21:27;97397.28;;;33.84;35.40
74675;BME280;63200;48.810;12.352;2023-06-22T10:23:53;97423.13;;;33.63;33.89
74675;BME280;63200;48.810;12.352;2023-06-22T10:26:19;97426.22;;;33.52;35.07
74675;BME280;63200;48.810;12.352;2023-06-22T10:28:44;97418.38;;;33.60;36.26
74675;BME280;63200;48.810;12.352;2023-06-22T10:31:09;97411.94;;;33.59;34.45
74675;BME280;63200;48.810;12.352;2023-06-22T10:33:35;97409.75;;;33.67;34.42
74675;BME280;63200;48.810;12.352;2023-06-22T10:36:00;97410.25;;;33.95;33.99
74675;BME280;63200;48.810;12.352;2023-06-22T10:38:25;97407.63;;;34.17;34.40
74675;BME280;63200;48.810;12.352;2023-06-22T10:40:51;97399.69;;;34.28;34.61
74675;BME280;63200;48.810;12.352;2023-06-22T10:43:16;97395.19;;;34.31;34.27
74675;BME280;63200;48.810;12.352;2023-06-22T10:45:41;97391.94;;;34.03;35.09
74675;BME280;63200;48.810;12.352;2023-06-22T10:48:06;97390.06;;;34.13;35.13
74675;BME280;63200;48.810;12.352;2023-06-22T10:50:32;97396.34;;;34.33;33.63
74675;BME280;63200;48.810;12.352;2023-06-22T10:52:57;97389.25;;;34.42;33.10
74675;BME280;63200;48.810;12.352;2023-06-22T10:55:23;97390.28;;;34.48;34.41
74675;BME280;63200;48.810;12.352;2023-06-22T10:57:48;97403.94;;;34.62;33.95
74675;BME280;63200;48.810;12.352;2023-06-22T11:00:15;97387.03;;;34.62;32.42
74675;BME280;63200;48.810;12.352;2023-06-22T11:02:40;97383.19;;;34.69;33.32
74675;BME280;63200;48.810;12.352;2023-06-22T11:05:06;97381.50;;;34.71;31.82
74675;BME280;63200;48.810;12.352;2023-06-22T11:07:31;97377.75;;;34.49;33.65
74675;BME280;63200;48.810;12.352;2023-06-22T11:09:58;97352.34;;;34.23;33.58
74675;BME280;63200;48.810;12.352;2023-06-22T11:12:23;97366.63;;;34.45;34.23
74675;BME280;63200;48.810;12.352;2023-06-22T11:14:48;97372.94;;;34.49;33.05
74675;BME280;63200;48.810;12.352;2023-06-22T11:17:16;97368.31;;;34.68;33.33
74675;BME280;63200;48.810;12.352;2023-06-22T11:19:42;97366.63;;;34.58;32.51
74675;BME280;63200;48.810;12.352;2023-06-22T11:22:07;97356.38;;;34.64;32.42
74675;BME280;63200;48.810;12.352;2023-06-22T11:24:32;97359.31;;;34.99;32.07
74675;BME280;63200;48.810;12.352;2023-06-22T11:26:58;97366.75;;;34.67;31.68
74675;BME280;63200;48.810;12.352;2023-06-22T11:29:23;97348.94;;;34.70;33.15
74675;BME280;63200;48.810;12.352;2023-06-22T11:31:49;97348.72;;;35.03;33.62
74675;BME280;63200;48.810;12.352;2023-06-22T11:34:14;97341.16;;;35.00;32.14
74675;BME280;63200;48.810;12.352;2023-06-22T11:36:39;97343.66;;;34.98;32.70
74675;BME280;63200;48.810;12.352;2023-06-22T11:39:05;97307.63;;;35.15;31.50
74675;BME280;63200;48.810;12.352;2023-06-22T11:41:31;97296.44;;;35.25;32.80
74675;BME280;63200;48.810;12.352;2023-06-22T11:43:56;97326.34;;;35.70;31.15
74675;BME280;63200;48.810;12.352;2023-06-22T11:46:21;97322.78;;;35.57;30.10
74675;BME280;63200;48.810;12.352;2023-06-22T11:48:46;97321.22;;;35.78;31.32
74675;BME280;63200;48.810;12.352;2023-06-22T11:51:12;97318.50;;;35.87;31.84
74675;BME280;63200;48.810;12.352;2023-06-22T11:53:37;97311.41;;;36.05;32.28
74675;BME280;63200;48.810;12.352;2023-06-22T11:56:02;97315.25;;;36.42;30.50
74675;BME280;63200;48.810;12.352;2023-06-22T11:58:28;97313.19;;;36.33;31.06
74675;BME280;63200;48.810;12.352;2023-06-22T12:00:54;97314.53;;;36.07;29.16
74675;BME280;63200;48.810;12.352;2023-06-22T12:03:19;97309.13;;;35.55;31.98
74675;BME280;63200;48.810;12.352;2023-06-22T12:05:46;97296.72;;;34.79;32.63
74675;BME280;63200;48.810;12.352;2023-06-22T12:08:12;97302.28;;;34.14;33.60
74675;BME280;63200;48.810;12.352;2023-06-22T12:10:38;97290.38;;;33.64;35.00
74675;BME280;63200;48.810;12.352;2023-06-22T12:13:03;97289.06;;;33.40;33.98
74675;BME280;63200;48.810;12.352;2023-06-22T12:15:29;97279.78;;;33.26;34.84
74675;BME280;63200;48.810;12.352;2023-06-22T12:17:54;97285.81;;;33.41;34.45
74675;BME280;63200;48.810;12.352;2023-06-22T12:20:19;97287.19;;;33.79;36.43
74675;BME280;63200;48.810;12.352;2023-06-22T12:22:45;97281.72;;;34.43;36.23
74675;BME280;63200;48.810;12.352;2023-06-22T12:25:11;97274.50;;;34.94;35.19
74675;BME280;63200;48.810;12.352;2023-06-22T12:27:36;97271.09;;;34.99;33.79
74675;BME280;63200;48.810;12.352;2023-06-22T12:30:02;97264.44;;;35.06;33.40
74675;BME280;63200;48.810;12.352;2023-06-22T12:32:27;97265.97;;;35.55;31.68
74675;BME280;63200;48.810;12.352;2023-06-22T12:34:53;97262.72;;;36.00;31.96
74675;BME280;63200;48.810;12.352;2023-06-22T12:37:18;97252.97;;;36.33;32.20
74675;BME280;63200;48.810;12.352;2023-06-22T12:39:44;97260.31;;;36.21;31.09
74675;BME280;63200;48.810;12.352;2023-06-22T12:42:10;97243.09;;;35.52;33.42
74675;BME280;63200;48.810;12.352;2023-06-22T12:44:38;97253.09;;;35.53;32.53
74675;BME280;63200;48.810;12.352;2023-06-22T12:47:04;97252.16;;;35.92;33.22
74675;BME280;63200;48.810;12.352;2023-06-22T12:49:30;97247.06;;;36.09;32.40
74675;BME280;63200;48.810;12.352;2023-06-22T12:51:55;97234.06;;;36.11;30.56